sensor_id;sensor_type;location;lat;lon;timestamp;P1;durP1;ratioP1;P2;durP2;ratioP2
20159;SDS011;50187;50.492;12.134;2023-07-24T00:00:03;3.10;;;2.80;;
20159;SDS011;50187;50.492;12.134;2023-07-24T00:02:30;2.60;;;2.40;;
20159;SDS011;50187;50.492;12.134;2023-07-24T00:04:56;3.13;;;2.70;;
20159;SDS011;50187;50.492;12.134;2023-07-24T00:07:23;2.70;;;2.50;;
20159;SDS011;50187;50.492;12.134;2023-07-24T00:09:51;2.93;;;2.73;;
20159;SDS011;50187;50.492;12.134;2023-07-24T00:12:17;2.73;;;2.53;;
20159;SDS011;50187;50.492;12.134;2023-07-24T00:14:44;2.73;;;2.53;;
20159;SDS011;50187;50.492;12.134;2023-07-24T00:17:11;2.60;;;2.47;;
20159;SDS011;50187;50.492;12.134;2023-07-24T00:19:37;3.00;;;2.80;;
20159;SDS011;50187;50.492;12.134;2023-07-24T00:22:04;2.53;;;2.10;;
20159;SDS011;50187;50.492;12.134;2023-07-24T00:24:31;2.53;;;2.40;;
20159;SDS011;50187;50.492;12.134;2023-07-24T00:26:58;2.77;;;2.57;;
20159;SDS011;50187;50.492;12.134;2023-07-24T00:29:25;2.93;;;2.73;;
20159;SDS011;50187;50.492;12.134;2023-07-24T00:31:51;2.47;;;2.37;;
20159;SDS011;50187;50.492;12.134;2023-07-24T00:34:18;2.93;;;2.73;;
20159;SDS011;50187;50.492;12.134;2023-07-24T00:36:44;2.97;;;2.77;;
20159;SDS011;50187;50.492;12.134;2023-07-24T00:39:13;2.70;;;2.50;;
20159;SDS011;50187;50.492;12.134;2023-07-24T00:41:43;2.67;;;2.47;;
20159;SDS011;50187;50.492;12.134;2023-07-24T00:44:10;2.53;;;2.43;;
20159;SDS011;50187;50.492;12.134;2023-07-24T00:46:36;2.90;;;2.70;;
20159;SDS011;50187;50.492;12.134;2023-07-24T00:49:04;2.90;;;2.70;;
20159;SDS011;50187;50.492;12.134;2023-07-24T00:51:31;2.83;;;2.63;;
20159;SDS011;50187;50.492;12.134;2023-07-24T00:54:00;2.80;;;2.60;;
20159;SDS011;50187;50.492;12.134;2023-07-24T00:56:29;2.57;;;2.47;;
20159;SDS011;50187;50.492;12.134;2023-07-24T00:58:58;3.03;;;2.83;;
20159;SDS011;50187;50.492;12.134;2023-07-24T01:01:25;2.87;;;2.67;;
20159;SDS011;50187;50.492;12.134;2023-07-24T01:03:52;3.23;;;2.93;;
20159;SDS011;50187;50.492;12.134;2023-07-24T01:06:19;2.67;;;2.47;;
20159;SDS011;50187;50.492;12.134;2023-07-24T01:08:46;2.57;;;2.43;;
20159;SDS011;50187;50.492;12.134;2023-07-24T01:11:18;3.03;;;2.83;;
20159;SDS011;50187;50.492;12.134;2023-07-24T01:13:56;3.03;;;2.83;;
20159;SDS011;50187;50.492;12.134;2023-07-24T01:16:37;2.67;;;2.50;;
20159;SDS011;50187;50.492;12.134;2023-07-24T01:19:08;3.10;;;2.90;;
20159;SDS011;50187;50.492;12.134;2023-07-24T01:21:44;2.80;;;2.60;;
20159;SDS011;50187;50.492;12.134;2023-07-24T01:24:29;2.50;;;2.40;;
20159;SDS011;50187;50.492;12.134;2023-07-24T01:27:02;2.37;;;2.17;;
20159;SDS011;50187;50.492;12.134;2023-07-24T01:29:30;2.70;;;2.50;;
20159;SDS011;50187;50.492;12.134;2023-07-24T01:31:56;2.83;;;2.63;;
20159;SDS011;50187;50.492;12.134;2023-07-24T01:34:23;2.70;;;2.50;;
20159;SDS011;50187;50.492;12.134;2023-07-24T01:36:50;2.97;;;2.77;;
20159;SDS011;50187;50.492;12.134;2023-07-24T01:39:17;2.90;;;2.70;;
20159;SDS011;50187;50.492;12.134;2023-07-24T01:41:46;3.10;;;2.90;;
20159;SDS011;50187;50.492;12.134;2023-07-24T01:44:13;3.13;;;2.93;;
20159;SDS011;50187;50.492;12.134;2023-07-24T01:46:40;2.90;;;2.70;;
20159;SDS011;50187;50.492;12.134;2023-07-24T01:49:07;3.37;;;3.10;;
20159;SDS011;50187;50.492;12.134;2023-07-24T01:51:33;2.80;;;2.60;;
20159;SDS011;50187;50.492;12.134;2023-07-24T01:54:00;2.70;;;2.50;;
20159;SDS011;50187;50.492;12.134;2023-07-24T01:56:27;3.07;;;2.87;;
20159;SDS011;50187;50.492;12.134;2023-07-24T01:58:54;2.80;;;2.60;;
20159;SDS011;50187;50.492;12.134;2023-07-24T02:01:20;2.97;;;2.77;;
20159;SDS011;50187;50.492;12.134;2023-07-24T02:03:47;2.90;;;2.70;;
20159;SDS011;50187;50.492;12.134;2023-07-24T02:06:14;3.00;;;2.80;;
20159;SDS011;50187;50.492;12.134;2023-07-24T02:08:40;2.97;;;2.63;;
20159;SDS011;50187;50.492;12.134;2023-07-24T02:11:08;3.00;;;2.80;;
20159;SDS011;50187;50.492;12.134;2023-07-24T02:13:35;2.97;;;2.77;;
20159;SDS011;50187;50.492;12.134;2023-07-24T02:16:01;3.13;;;2.90;;
20159;SDS011;50187;50.492;12.134;2023-07-24T02:18:28;2.70;;;2.50;;
20159;SDS011;50187;50.492;12.134;2023-07-24T02:20:55;2.80;;;2.60;;
20159;SDS011;50187;50.492;12.134;2023-07-24T02:23:23;2.80;;;2.60;;
20159;SDS011;50187;50.492;12.134;2023-07-24T02:25:50;2.57;;;2.40;;
20159;SDS011;50187;50.492;12.134;2023-07-24T02:28:18;2.70;;;2.50;;
20159;SDS011;50187;50.492;12.134;2023-07-24T02:30:46;3.10;;;2.90;;
20159;SDS011;50187;50.492;12.134;2023-07-24T02:33:13;2.60;;;2.47;;
20159;SDS011;50187;50.492;12.134;2023-07-24T02:35:41;2.97;;;2.70;;
20159;SDS011;50187;50.492;12.134;2023-07-24T02:38:08;2.90;;;2.70;;
20159;SDS011;50187;50.492;12.134;2023-07-24T02:40:35;2.70;;;2.50;;
20159;SDS011;50187;50.492;12.134;2023-07-24T02:43:04;2.83;;;2.63;;
20159;SDS011;50187;50.492;12.134;2023-07-24T02:45:33;3.00;;;2.80;;
20159;SDS011;50187;50.492;12.134;2023-07-24T02:48:00;3.23;;;3.03;;
20159;SDS011;50187;50.492;12.134;2023-07-24T02:50:28;2.63;;;2.43;;
20159;SDS011;50187;50.492;12.134;2023-07-24T02:52:55;3.13;;;2.93;;
20159;SDS011;50187;50.492;12.134;2023-07-24T02:55:22;2.90;;;2.70;;
20159;SDS011;50187;50.492;12.134;2023-07-24T02:57:49;2.90;;;2.70;;
20159;SDS011;50187;50.492;12.134;2023-07-24T03:00:17;3.23;;;3.00;;
20159;SDS011;50187;50.492;12.134;2023-07-24T03:02:43;2.77;;;2.57;;
20159;SDS011;50187;50.492;12.134;2023-07-24T03:05:10;2.93;;;2.73;;
20159;SDS011;50187;50.492;12.134;2023-07-24T03:07:37;3.57;;;3.27;;
20159;SDS011;50187;50.492;12.134;2023-07-24T03:10:03;2.90;;;2.70;;
20159;SDS011;50187;50.492;12.134;2023-07-24T03:12:30;2.90;;;2.70;;
20159;SDS011;50187;50.492;12.134;2023-07-24T03:14:57;3.20;;;3.00;;
20159;SDS011;50187;50.492;12.134;2023-07-24T03:17:24;3.13;;;2.93;;
20159;SDS011;50187;50.492;12.134;2023-07-24T03:19:50;3.07;;;2.87;;
20159;SDS011;50187;50.492;12.134;2023-07-24T03:22:17;3.50;;;3.20;;
20159;SDS011;50187;50.492;12.134;2023-07-24T03:24:43;3.30;;;3.00;;
20159;SDS011;50187;50.492;12.134;2023-07-24T03:27:10;3.00;;;2.80;;
20159;SDS011;50187;50.492;12.134;2023-07-24T03:29:38;2.80;;;2.60;;
20159;SDS011;50187;50.492;12.134;2023-07-24T03:32:05;2.97;;;2.77;;
20159;SDS011;50187;50.492;12.134;2023-07-24T03:34:32;2.80;;;2.60;;
20159;SDS011;50187;50.492;12.134;2023-07-24T03:36:59;3.00;;;2.80;;
20159;SDS011;50187;50.492;12.134;2023-07-24T03:39:26;2.90;;;2.70;;
20159;SDS011;50187;50.492;12.134;2023-07-24T03:41:52;3.23;;;3.00;;
20159;SDS011;50187;50.492;12.134;2023-07-24T03:44:19;3.00;;;2.80;;
20159;SDS011;50187;50.492;12.134;2023-07-24T03:46:45;3.20;;;3.00;;
20159;SDS011;50187;50.492;12.134;2023-07-24T03:49:12;2.80;;;2.60;;
20159;SDS011;50187;50.492;12.134;2023-07-24T03:51:39;3.17;;;2.97;;
20159;SDS011;50187;50.492;12.134;2023-07-24T03:54:05;2.83;;;2.63;;
20159;SDS011;50187;50.492;12.134;2023-07-24T03:56:32;3.10;;;2.90;;
20159;SDS011;50187;50.492;12.134;2023-07-24T03:58:58;3.70;;;3.40;;
20159;SDS011;50187;50.492;12.134;2023-07-24T04:01:25;2.70;;;2.50;;
20159;SDS011;50187;50.492;12.134;2023-07-24T04:03:52;3.03;;;2.77;;
20159;SDS011;50187;50.492;12.134;2023-07-24T04:06:19;2.77;;;2.57;;
20159;SDS011;50187;50.492;12.134;2023-07-24T04:08:45;2.97;;;2.77;;
20159;SDS011;50187;50.492;12.134;2023-07-24T04:11:12;3.40;;;3.20;;
20159;SDS011;50187;50.492;12.134;2023-07-24T04:13:38;2.50;;;2.40;;
20159;SDS011;50187;50.492;12.134;2023-07-24T04:16:05;2.77;;;2.57;;
20159;SDS011;50187;50.492;12.134;2023-07-24T04:18:32;4.10;;;2.93;;
20159;SDS011;50187;50.492;12.134;2023-07-24T04:20:58;3.40;;;3.20;;
20159;SDS011;50187;50.492;12.134;2023-07-24T04:23:25;3.40;;;3.10;;
20159;SDS011;50187;50.492;12.134;2023-07-24T04:25:51;2.97;;;2.77;;
20159;SDS011;50187;50.492;12.134;2023-07-24T04:28:18;3.80;;;3.50;;
20159;SDS011;50187;50.492;12.134;2023-07-24T04:30:44;3.60;;;3.30;;
20159;SDS011;50187;50.492;12.134;2023-07-24T04:33:11;3.37;;;3.07;;
20159;SDS011;50187;50.492;12.134;2023-07-24T04:35:37;3.40;;;3.17;;
20159;SDS011;50187;50.492;12.134;2023-07-24T04:38:04;2.83;;;2.63;;
20159;SDS011;50187;50.492;12.134;2023-07-24T04:40:31;3.00;;;2.80;;
20159;SDS011;50187;50.492;12.134;2023-07-24T04:42:57;2.87;;;2.67;;
20159;SDS011;50187;50.492;12.134;2023-07-24T04:45:24;3.03;;;2.83;;
20159;SDS011;50187;50.492;12.134;2023-07-24T04:47:51;3.30;;;3.10;;
20159;SDS011;50187;50.492;12.134;2023-07-24T04:50:17;3.30;;;3.00;;
20159;SDS011;50187;50.492;12.134;2023-07-24T04:52:44;3.30;;;3.10;;
20159;SDS011;50187;50.492;12.134;2023-07-24T04:55:10;3.17;;;2.97;;
20159;SDS011;50187;50.492;12.134;2023-07-24T04:57:37;3.33;;;3.10;;
20159;SDS011;50187;50.492;12.134;2023-07-24T05:00:04;3.60;;;3.30;;
20159;SDS011;50187;50.492;12.134;2023-07-24T05:02:31;3.07;;;2.87;;
20159;SDS011;50187;50.492;12.134;2023-07-24T05:04:57;3.27;;;3.03;;
20159;SDS011;50187;50.492;12.134;2023-07-24T05:07:24;2.87;;;2.67;;
20159;SDS011;50187;50.492;12.134;2023-07-24T05:09:50;3.10;;;2.90;;
20159;SDS011;50187;50.492;12.134;2023-07-24T05:12:17;3.23;;;3.03;;
20159;SDS011;50187;50.492;12.134;2023-07-24T05:14:43;3.33;;;3.07;;
20159;SDS011;50187;50.492;12.134;2023-07-24T05:17:10;3.33;;;3.10;;
20159;SDS011;50187;50.492;12.134;2023-07-24T05:19:37;3.90;;;3.60;;
20159;SDS011;50187;50.492;12.134;2023-07-24T05:22:03;3.33;;;3.10;;
20159;SDS011;50187;50.492;12.134;2023-07-24T05:24:30;3.47;;;3.17;;
20159;SDS011;50187;50.492;12.134;2023-07-24T05:26:56;3.33;;;3.13;;
20159;SDS011;50187;50.492;12.134;2023-07-24T05:29:23;3.10;;;2.90;;
20159;SDS011;50187;50.492;12.134;2023-07-24T05:31:50;3.57;;;3.30;;
20159;SDS011;50187;50.492;12.134;2023-07-24T05:34:16;3.90;;;3.43;;
20159;SDS011;50187;50.492;12.134;2023-07-24T05:36:43;3.77;;;3.43;;
20159;SDS011;50187;50.492;12.134;2023-07-24T05:39:09;4.60;;;4.00;;
20159;SDS011;50187;50.492;12.134;2023-07-24T05:41:36;7.37;;;5.77;;
20159;SDS011;50187;50.492;12.134;2023-07-24T05:44:06;6.43;;;5.83;;
20159;SDS011;50187;50.492;12.134;2023-07-24T05:46:32;8.63;;;7.27;;
20159;SDS011;50187;50.492;12.134;2023-07-24T05:48:59;7.43;;;6.17;;
20159;SDS011;50187;50.492;12.134;2023-07-24T05:51:29;7.73;;;6.47;;
20159;SDS011;50187;50.492;12.134;2023-07-24T05:53:55;7.37;;;6.47;;
20159;SDS011;50187;50.492;12.134;2023-07-24T05:56:22;8.27;;;7.43;;
20159;SDS011;50187;50.492;12.134;2023-07-24T05:58:49;8.50;;;7.20;;
20159;SDS011;50187;50.492;12.134;2023-07-24T06:01:16;7.73;;;6.93;;
20159;SDS011;50187;50.492;12.134;2023-07-24T06:03:43;7.53;;;6.80;;
20159;SDS011;50187;50.492;12.134;2023-07-24T06:06:09;9.00;;;7.80;;
20159;SDS011;50187;50.492;12.134;2023-07-24T06:08:36;8.43;;;7.53;;
20159;SDS011;50187;50.492;12.134;2023-07-24T06:11:02;9.13;;;6.80;;
20159;SDS011;50187;50.492;12.134;2023-07-24T06:13:29;7.97;;;6.60;;
20159;SDS011;50187;50.492;12.134;2023-07-24T06:15:55;7.40;;;6.63;;
20159;SDS011;50187;50.492;12.134;2023-07-24T06:18:22;7.93;;;7.13;;
20159;SDS011;50187;50.492;12.134;2023-07-24T06:20:52;7.73;;;6.77;;
20159;SDS011;50187;50.492;12.134;2023-07-24T06:23:19;8.37;;;7.47;;
20159;SDS011;50187;50.492;12.134;2023-07-24T06:25:46;12.70;;;7.60;;
20159;SDS011;50187;50.492;12.134;2023-07-24T06:28:12;8.40;;;7.53;;
20159;SDS011;50187;50.492;12.134;2023-07-24T06:30:39;13.17;;;7.87;;
20159;SDS011;50187;50.492;12.134;2023-07-24T06:33:05;7.07;;;6.37;;
20159;SDS011;50187;50.492;12.134;2023-07-24T06:35:32;7.60;;;6.90;;
20159;SDS011;50187;50.492;12.134;2023-07-24T06:37:59;7.70;;;6.93;;
20159;SDS011;50187;50.492;12.134;2023-07-24T06:40:25;8.63;;;7.73;;
20159;SDS011;50187;50.492;12.134;2023-07-24T06:42:52;8.17;;;7.07;;
20159;SDS011;50187;50.492;12.134;2023-07-24T06:45:19;6.93;;;6.33;;
20159;SDS011;50187;50.492;12.134;2023-07-24T06:47:45;10.37;;;6.60;;
20159;SDS011;50187;50.492;12.134;2023-07-24T06:50:12;7.37;;;6.50;;
20159;SDS011;50187;50.492;12.134;2023-07-24T06:52:39;7.70;;;6.80;;
20159;SDS011;50187;50.492;12.134;2023-07-24T06:55:05;9.30;;;7.17;;
20159;SDS011;50187;50.492;12.134;2023-07-24T06:57:32;9.07;;;6.60;;
20159;SDS011;50187;50.492;12.134;2023-07-24T06:59:59;7.60;;;6.90;;
20159;SDS011;50187;50.492;12.134;2023-07-24T07:02:25;6.70;;;6.00;;
20159;SDS011;50187;50.492;12.134;2023-07-24T07:04:52;7.40;;;6.70;;
20159;SDS011;50187;50.492;12.134;2023-07-24T07:07:18;6.50;;;5.90;;
20159;SDS011;50187;50.492;12.134;2023-07-24T07:09:45;8.13;;;7.33;;
20159;SDS011;50187;50.492;12.134;2023-07-24T07:12:11;7.73;;;6.93;;
20159;SDS011;50187;50.492;12.134;2023-07-24T07:14:38;7.57;;;6.47;;
20159;SDS011;50187;50.492;12.134;2023-07-24T07:17:05;6.43;;;5.83;;
20159;SDS011;50187;50.492;12.134;2023-07-24T07:19:31;6.97;;;6.20;;
20159;SDS011;50187;50.492;12.134;2023-07-24T07:21:58;11.30;;;7.47;;
20159;SDS011;50187;50.492;12.134;2023-07-24T07:24:25;7.13;;;6.53;;
20159;SDS011;50187;50.492;12.134;2023-07-24T07:26:51;7.07;;;6.37;;
20159;SDS011;50187;50.492;12.134;2023-07-24T07:29:18;8.40;;;6.63;;
20159;SDS011;50187;50.492;12.134;2023-07-24T07:31:45;6.60;;;5.97;;
20159;SDS011;50187;50.492;12.134;2023-07-24T07:34:11;7.40;;;6.70;;
20159;SDS011;50187;50.492;12.134;2023-07-24T07:36:38;7.97;;;6.43;;
20159;SDS011;50187;50.492;12.134;2023-07-24T07:39:04;6.63;;;5.73;;
20159;SDS011;50187;50.492;12.134;2023-07-24T07:41:31;7.10;;;6.40;;
20159;SDS011;50187;50.492;12.134;2023-07-24T07:43:58;7.23;;;6.17;;
20159;SDS011;50187;50.492;12.134;2023-07-24T07:46:24;7.83;;;6.67;;
20159;SDS011;50187;50.492;12.134;2023-07-24T07:48:52;7.07;;;6.30;;
20159;SDS011;50187;50.492;12.134;2023-07-24T07:51:18;7.13;;;6.27;;
20159;SDS011;50187;50.492;12.134;2023-07-24T07:53:45;6.93;;;6.33;;
20159;SDS011;50187;50.492;12.134;2023-07-24T07:56:11;6.77;;;5.80;;
20159;SDS011;50187;50.492;12.134;2023-07-24T07:58:38;6.77;;;6.07;;
20159;SDS011;50187;50.492;12.134;2023-07-24T08:01:05;7.37;;;6.73;;
20159;SDS011;50187;50.492;12.134;2023-07-24T08:03:32;7.00;;;6.27;;
20159;SDS011;50187;50.492;12.134;2023-07-24T08:05:59;7.30;;;6.53;;
20159;SDS011;50187;50.492;12.134;2023-07-24T08:08:26;6.93;;;6.23;;
20159;SDS011;50187;50.492;12.134;2023-07-24T08:10:52;6.37;;;5.77;;
20159;SDS011;50187;50.492;12.134;2023-07-24T08:13:19;6.80;;;6.10;;
20159;SDS011;50187;50.492;12.134;2023-07-24T08:15:45;6.47;;;5.77;;
20159;SDS011;50187;50.492;12.134;2023-07-24T08:18:12;6.57;;;5.90;;
20159;SDS011;50187;50.492;12.134;2023-07-24T08:20:39;6.63;;;6.03;;
20159;SDS011;50187;50.492;12.134;2023-07-24T08:23:06;6.40;;;5.80;;
20159;SDS011;50187;50.492;12.134;2023-07-24T08:25:33;6.47;;;5.87;;
20159;SDS011;50187;50.492;12.134;2023-07-24T08:27:59;6.40;;;5.80;;
20159;SDS011;50187;50.492;12.134;2023-07-24T08:30:32;8.03;;;5.73;;
20159;SDS011;50187;50.492;12.134;2023-07-24T08:32:59;6.73;;;6.13;;
20159;SDS011;50187;50.492;12.134;2023-07-24T08:35:26;6.80;;;6.20;;
20159;SDS011;50187;50.492;12.134;2023-07-24T08:37:53;6.40;;;5.80;;
20159;SDS011;50187;50.492;12.134;2023-07-24T08:40:20;7.13;;;6.53;;
20159;SDS011;50187;50.492;12.134;2023-07-24T08:42:48;6.37;;;5.77;;
20159;SDS011;50187;50.492;12.134;2023-07-24T08:45:16;6.23;;;5.63;;
20159;SDS011;50187;50.492;12.134;2023-07-24T08:47:44;6.40;;;5.80;;
20159;SDS011;50187;50.492;12.134;2023-07-24T08:50:11;6.20;;;5.70;;
20159;SDS011;50187;50.492;12.134;2023-07-24T08:52:39;6.00;;;5.50;;
20159;SDS011;50187;50.492;12.134;2023-07-24T08:55:06;5.67;;;5.17;;
20159;SDS011;50187;50.492;12.134;2023-07-24T08:57:33;6.27;;;5.67;;
20159;SDS011;50187;50.492;12.134;2023-07-24T09:00:01;6.67;;;6.00;;
20159;SDS011;50187;50.492;12.134;2023-07-24T09:02:34;7.10;;;5.77;;
20159;SDS011;50187;50.492;12.134;2023-07-24T09:05:02;5.97;;;5.47;;
20159;SDS011;50187;50.492;12.134;2023-07-24T09:07:30;6.10;;;5.60;;
20159;SDS011;50187;50.492;12.134;2023-07-24T09:09:58;6.33;;;5.73;;
20159;SDS011;50187;50.492;12.134;2023-07-24T09:12:25;5.77;;;5.27;;
20159;SDS011;50187;50.492;12.134;2023-07-24T09:15:04;6.43;;;5.83;;
20159;SDS011;50187;50.492;12.134;2023-07-24T09:17:33;6.00;;;5.40;;
20159;SDS011;50187;50.492;12.134;2023-07-24T09:20:00;5.63;;;5.13;;
20159;SDS011;50187;50.492;12.134;2023-07-24T09:22:28;6.47;;;5.87;;
20159;SDS011;50187;50.492;12.134;2023-07-24T09:24:56;6.73;;;6.03;;
20159;SDS011;50187;50.492;12.134;2023-07-24T09:27:25;6.20;;;5.60;;
20159;SDS011;50187;50.492;12.134;2023-07-24T09:29:57;6.00;;;5.50;;
20159;SDS011;50187;50.492;12.134;2023-07-24T09:32:24;5.83;;;4.70;;
20159;SDS011;50187;50.492;12.134;2023-07-24T09:34:52;5.77;;;5.27;;
20159;SDS011;50187;50.492;12.134;2023-07-24T09:37:26;5.77;;;5.27;;
20159;SDS011;50187;50.492;12.134;2023-07-24T09:39:54;5.77;;;5.23;;
20159;SDS011;50187;50.492;12.134;2023-07-24T09:45:10;5.80;;;5.30;;
20159;SDS011;50187;50.492;12.134;2023-07-24T09:47:36;5.80;;;5.20;;
20159;SDS011;50187;50.492;12.134;2023-07-24T09:50:08;6.60;;;6.00;;
20159;SDS011;50187;50.492;12.134;2023-07-24T09:52:35;5.97;;;5.47;;
20159;SDS011;50187;50.492;12.134;2023-07-24T09:55:18;6.37;;;5.77;;
20159;SDS011;50187;50.492;12.134;2023-07-24T09:57:48;6.37;;;5.63;;
20159;SDS011;50187;50.492;12.134;2023-07-24T10:00:15;6.93;;;5.83;;
20159;SDS011;50187;50.492;12.134;2023-07-24T10:02:42;6.23;;;5.63;;
20159;SDS011;50187;50.492;12.134;2023-07-24T10:05:11;6.17;;;5.57;;
20159;SDS011;50187;50.492;12.134;2023-07-24T10:07:38;8.80;;;5.33;;
20159;SDS011;50187;50.492;12.134;2023-07-24T10:10:05;6.10;;;5.13;;
20159;SDS011;50187;50.492;12.134;2023-07-24T10:12:33;6.40;;;5.90;;
20159;SDS011;50187;50.492;12.134;2023-07-24T10:15:00;5.97;;;5.40;;
20159;SDS011;50187;50.492;12.134;2023-07-24T10:17:37;6.37;;;5.83;;
20159;SDS011;50187;50.492;12.134;2023-07-24T10:20:05;5.90;;;5.30;;
20159;SDS011;50187;50.492;12.134;2023-07-24T10:22:33;6.27;;;5.70;;
20159;SDS011;50187;50.492;12.134;2023-07-24T10:25:08;5.93;;;5.43;;
20159;SDS011;50187;50.492;12.134;2023-07-24T10:27:36;6.43;;;5.83;;
20159;SDS011;50187;50.492;12.134;2023-07-24T10:30:05;6.33;;;5.77;;
20159;SDS011;50187;50.492;12.134;2023-07-24T10:32:53;6.47;;;5.87;;
20159;SDS011;50187;50.492;12.134;2023-07-24T10:35:21;6.93;;;6.30;;
20159;SDS011;50187;50.492;12.134;2023-07-24T10:37:58;6.77;;;6.20;;
20159;SDS011;50187;50.492;12.134;2023-07-24T10:40:25;6.03;;;5.47;;
20159;SDS011;50187;50.492;12.134;2023-07-24T10:43:00;6.33;;;5.73;;
20159;SDS011;50187;50.492;12.134;2023-07-24T10:45:40;6.73;;;6.03;;
20159;SDS011;50187;50.492;12.134;2023-07-24T10:48:18;6.93;;;6.30;;
20159;SDS011;50187;50.492;12.134;2023-07-24T10:50:47;6.57;;;5.97;;
20159;SDS011;50187;50.492;12.134;2023-07-24T10:53:20;6.80;;;6.17;;
20159;SDS011;50187;50.492;12.134;2023-07-24T10:55:47;6.33;;;5.73;;
20159;SDS011;50187;50.492;12.134;2023-07-24T10:58:14;6.60;;;6.00;;
20159;SDS011;50187;50.492;12.134;2023-07-24T11:00:41;6.57;;;5.97;;
20159;SDS011;50187;50.492;12.134;2023-07-24T11:03:13;5.87;;;5.37;;
20159;SDS011;50187;50.492;12.134;2023-07-24T11:05:41;6.33;;;5.83;;
20159;SDS011;50187;50.492;12.134;2023-07-24T11:08:12;6.03;;;5.43;;
20159;SDS011;50187;50.492;12.134;2023-07-24T11:10:46;7.10;;;6.40;;
20159;SDS011;50187;50.492;12.134;2023-07-24T11:13:14;6.80;;;6.20;;
20159;SDS011;50187;50.492;12.134;2023-07-24T11:15:42;5.97;;;5.47;;
20159;SDS011;50187;50.492;12.134;2023-07-24T11:18:08;7.83;;;5.63;;
20159;SDS011;50187;50.492;12.134;2023-07-24T11:20:38;5.73;;;5.23;;
20159;SDS011;50187;50.492;12.134;2023-07-24T11:23:10;5.47;;;4.97;;
20159;SDS011;50187;50.492;12.134;2023-07-24T11:25:38;6.00;;;5.50;;
20159;SDS011;50187;50.492;12.134;2023-07-24T11:28:09;6.20;;;5.70;;
20159;SDS011;50187;50.492;12.134;2023-07-24T11:30:36;5.67;;;5.17;;
20159;SDS011;50187;50.492;12.134;2023-07-24T11:33:04;5.43;;;4.93;;
20159;SDS011;50187;50.492;12.134;2023-07-24T11:35:33;5.83;;;5.30;;
20159;SDS011;50187;50.492;12.134;2023-07-24T11:38:01;5.37;;;4.97;;
20159;SDS011;50187;50.492;12.134;2023-07-24T11:43:03;6.07;;;5.47;;
20159;SDS011;50187;50.492;12.134;2023-07-24T11:45:30;5.50;;;5.00;;
20159;SDS011;50187;50.492;12.134;2023-07-24T11:47:57;5.50;;;5.00;;
20159;SDS011;50187;50.492;12.134;2023-07-24T11:50:24;5.40;;;4.90;;
20159;SDS011;50187;50.492;12.134;2023-07-24T11:52:51;5.87;;;5.37;;
20159;SDS011;50187;50.492;12.134;2023-07-24T11:55:19;5.60;;;5.10;;
20159;SDS011;50187;50.492;12.134;2023-07-24T11:57:57;6.57;;;5.77;;
20159;SDS011;50187;50.492;12.134;2023-07-24T12:00:28;5.80;;;5.30;;
20159;SDS011;50187;50.492;12.134;2023-07-24T12:03:02;5.80;;;5.30;;
20159;SDS011;50187;50.492;12.134;2023-07-24T12:05:38;6.33;;;5.60;;
20159;SDS011;50187;50.492;12.134;2023-07-24T12:08:06;6.20;;;5.60;;
20159;SDS011;50187;50.492;12.134;2023-07-24T12:10:35;5.20;;;4.80;;
20159;SDS011;50187;50.492;12.134;2023-07-24T12:13:06;6.00;;;5.50;;
20159;SDS011;50187;50.492;12.134;2023-07-24T12:15:33;6.60;;;5.90;;
20159;SDS011;50187;50.492;12.134;2023-07-24T12:18:04;5.73;;;5.23;;
20159;SDS011;50187;50.492;12.134;2023-07-24T12:20:31;6.07;;;5.47;;
20159;SDS011;50187;50.492;12.134;2023-07-24T12:22:58;5.50;;;5.00;;
20159;SDS011;50187;50.492;12.134;2023-07-24T12:25:25;5.77;;;5.27;;
20159;SDS011;50187;50.492;12.134;2023-07-24T12:27:51;6.20;;;5.63;;
20159;SDS011;50187;50.492;12.134;2023-07-24T12:30:18;7.17;;;5.50;;
20159;SDS011;50187;50.492;12.134;2023-07-24T12:32:45;6.10;;;5.57;;
20159;SDS011;50187;50.492;12.134;2023-07-24T12:35:12;5.63;;;5.13;;
20159;SDS011;50187;50.492;12.134;2023-07-24T12:37:42;5.83;;;5.30;;
20159;SDS011;50187;50.492;12.134;2023-07-24T12:40:09;6.40;;;5.77;;
20159;SDS011;50187;50.492;12.134;2023-07-24T12:42:36;6.67;;;5.80;;
20159;SDS011;50187;50.492;12.134;2023-07-24T12:45:03;6.20;;;5.53;;
20159;SDS011;50187;50.492;12.134;2023-07-24T12:47:30;6.53;;;5.93;;
20159;SDS011;50187;50.492;12.134;2023-07-24T12:49:58;5.70;;;5.20;;
20159;SDS011;50187;50.492;12.134;2023-07-24T12:52:25;5.80;;;5.30;;
20159;SDS011;50187;50.492;12.134;2023-07-24T12:54:53;6.47;;;5.47;;
20159;SDS011;50187;50.492;12.134;2023-07-24T12:57:27;5.80;;;5.30;;
20159;SDS011;50187;50.492;12.134;2023-07-24T12:59:54;6.20;;;5.63;;
20159;SDS011;50187;50.492;12.134;2023-07-24T13:02:20;5.70;;;5.10;;
20159;SDS011;50187;50.492;12.134;2023-07-24T13:04:47;5.63;;;5.13;;
20159;SDS011;50187;50.492;12.134;2023-07-24T13:07:14;6.23;;;5.63;;
20159;SDS011;50187;50.492;12.134;2023-07-24T13:09:40;5.50;;;5.00;;
20159;SDS011;50187;50.492;12.134;2023-07-24T13:12:07;5.83;;;5.33;;
20159;SDS011;50187;50.492;12.134;2023-07-24T13:14:35;5.80;;;5.30;;
20159;SDS011;50187;50.492;12.134;2023-07-24T13:17:04;5.67;;;5.17;;
20159;SDS011;50187;50.492;12.134;2023-07-24T13:19:31;6.40;;;5.90;;
20159;SDS011;50187;50.492;12.134;2023-07-24T13:21:58;6.27;;;5.67;;
20159;SDS011;50187;50.492;12.134;2023-07-24T13:24:24;5.53;;;5.13;;
20159;SDS011;50187;50.492;12.134;2023-07-24T13:26:51;6.27;;;5.67;;
20159;SDS011;50187;50.492;12.134;2023-07-24T13:29:18;5.93;;;5.43;;
20159;SDS011;50187;50.492;12.134;2023-07-24T13:31:44;6.33;;;5.73;;
20159;SDS011;50187;50.492;12.134;2023-07-24T13:34:11;6.40;;;5.80;;
20159;SDS011;50187;50.492;12.134;2023-07-24T13:36:37;6.07;;;5.57;;
20159;SDS011;50187;50.492;12.134;2023-07-24T13:39:04;5.70;;;5.10;;
20159;SDS011;50187;50.492;12.134;2023-07-24T13:41:31;7.10;;;5.33;;
20159;SDS011;50187;50.492;12.134;2023-07-24T13:43:58;6.57;;;5.97;;
20159;SDS011;50187;50.492;12.134;2023-07-24T13:46:25;5.87;;;5.33;;
20159;SDS011;50187;50.492;12.134;2023-07-24T13:48:51;5.57;;;5.10;;
20159;SDS011;50187;50.492;12.134;2023-07-24T13:51:18;6.17;;;5.37;;
20159;SDS011;50187;50.492;12.134;2023-07-24T13:53:44;6.00;;;5.40;;
20159;SDS011;50187;50.492;12.134;2023-07-24T13:56:14;6.47;;;5.97;;
20159;SDS011;50187;50.492;12.134;2023-07-24T13:58:41;6.40;;;5.80;;
20159;SDS011;50187;50.492;12.134;2023-07-24T14:01:07;5.73;;;5.23;;
20159;SDS011;50187;50.492;12.134;2023-07-24T14:03:34;6.17;;;5.60;;
20159;SDS011;50187;50.492;12.134;2023-07-24T14:06:01;5.70;;;5.20;;
20159;SDS011;50187;50.492;12.134;2023-07-24T14:08:27;6.00;;;5.40;;
20159;SDS011;50187;50.492;12.134;2023-07-24T14:10:54;5.30;;;4.80;;
20159;SDS011;50187;50.492;12.134;2023-07-24T14:13:21;6.27;;;5.67;;
20159;SDS011;50187;50.492;12.134;2023-07-24T14:15:47;6.57;;;5.90;;
20159;SDS011;50187;50.492;12.134;2023-07-24T14:18:14;5.80;;;5.00;;
20159;SDS011;50187;50.492;12.134;2023-07-24T14:20:40;6.23;;;5.63;;
20159;SDS011;50187;50.492;12.134;2023-07-24T14:23:07;6.50;;;5.90;;
20159;SDS011;50187;50.492;12.134;2023-07-24T14:25:34;6.87;;;5.43;;
20159;SDS011;50187;50.492;12.134;2023-07-24T14:28:00;6.40;;;5.80;;
20159;SDS011;50187;50.492;12.134;2023-07-24T14:30:27;5.93;;;5.33;;
20159;SDS011;50187;50.492;12.134;2023-07-24T14:32:54;5.43;;;4.93;;
20159;SDS011;50187;50.492;12.134;2023-07-24T14:35:20;6.20;;;5.60;;
20159;SDS011;50187;50.492;12.134;2023-07-24T14:37:47;5.70;;;5.17;;
20159;SDS011;50187;50.492;12.134;2023-07-24T14:40:14;6.20;;;5.60;;